createdAt,value
2022-12-31T00:00:53.438Z,25.80
2022-12-31T00:01:53.497Z,25.79
2022-12-31T00:02:53.518Z,25.82
2022-12-31T00:03:53.433Z,25.80
2022-12-31T00:04:53.425Z,25.77
2022-12-31T00:05:53.474Z,25.77
2022-12-31T00:06:53.423Z,25.77
2022-12-31T00:07:53.417Z,25.79
2022-12-31T00:08:53.420Z,25.79
2022-12-31T00:09:53.413Z,25.82
2022-12-31T00:10:53.421Z,25.82
2022-12-31T00:11:53.413Z,25.79
2022-12-31T00:12:53.418Z,25.80
2022-12-31T00:13:53.410Z,25.75
2022-12-31T00:14:53.415Z,25.87
2022-12-31T00:15:53.408Z,25.76
2022-12-31T00:16:53.483Z,25.80
2022-12-31T00:17:53.406Z,25.77
2022-12-31T00:18:53.414Z,25.80
2022-12-31T00:19:53.411Z,25.75
2022-12-31T00:20:53.412Z,25.77
2022-12-31T00:21:53.424Z,25.80
2022-12-31T00:22:53.409Z,25.79
2022-12-31T00:23:53.401Z,25.76
2022-12-31T00:24:53.407Z,25.79
2022-12-31T00:25:53.402Z,25.80
2022-12-31T00:26:53.405Z,25.79
2022-12-31T00:27:53.397Z,25.80
2022-12-31T00:28:53.406Z,25.80
2022-12-31T00:29:53.401Z,25.79
2022-12-31T00:30:53.476Z,25.77
2022-12-31T00:31:53.393Z,25.75
2022-12-31T00:32:53.401Z,25.80
2022-12-31T00:33:53.391Z,25.79
2022-12-31T00:34:53.397Z,25.82
2022-12-31T00:35:53.391Z,25.77
2022-12-31T00:36:53.408Z,25.76
2022-12-31T00:37:53.421Z,25.82
2022-12-31T00:38:53.395Z,25.79
2022-12-31T00:39:53.385Z,25.80
2022-12-31T00:40:53.392Z,25.77
2022-12-31T00:41:53.384Z,25.80
2022-12-31T00:42:53.389Z,25.82
2022-12-31T00:43:53.383Z,25.73
2022-12-31T00:44:53.388Z,25.76
2022-12-31T00:45:53.415Z,25.80
2022-12-31T00:46:53.386Z,25.76
2022-12-31T00:47:53.378Z,25.77
2022-12-31T00:48:53.393Z,25.77
2022-12-31T00:49:53.376Z,25.77
2022-12-31T00:50:53.381Z,25.79
2022-12-31T00:51:53.374Z,25.79
2022-12-31T00:52:53.381Z,25.83
2022-12-31T00:53:53.395Z,25.75
2022-12-31T00:54:53.383Z,25.79
2022-12-31T00:55:53.370Z,25.76
2022-12-31T00:56:53.379Z,25.79
2022-12-31T00:57:53.369Z,25.80
2022-12-31T00:58:53.374Z,25.80
2022-12-31T00:59:53.367Z,25.77
2022-12-31T01:00:53.371Z,25.83
2022-12-31T01:01:53.498Z,25.79
2022-12-31T01:02:53.473Z,25.77
2022-12-31T01:03:53.361Z,25.77
2022-12-31T01:04:53.371Z,25.82
2022-12-31T01:05:53.359Z,25.76
2022-12-31T01:06:53.366Z,25.82
2022-12-31T01:07:53.361Z,25.82
2022-12-31T01:08:53.364Z,25.82
2022-12-31T01:09:53.391Z,25.83
2022-12-31T01:10:53.361Z,25.75
2022-12-31T01:11:53.353Z,25.79
2022-12-31T01:12:53.366Z,25.77
2022-12-31T01:13:53.369Z,25.79
2022-12-31T01:14:53.360Z,25.77
2022-12-31T01:15:53.372Z,25.83
2022-12-31T01:16:53.363Z,25.77
2022-12-31T01:17:53.354Z,25.82
2022-12-31T01:18:53.366Z,25.76
2022-12-31T01:19:53.362Z,25.75
2022-12-31T01:20:53.354Z,25.79
2022-12-31T01:21:53.349Z,25.82
2022-12-31T01:22:53.351Z,25.76
2022-12-31T01:23:53.344Z,25.80
2022-12-31T01:24:53.351Z,25.80
2022-12-31T01:25:53.369Z,25.76
2022-12-31T01:26:53.347Z,25.76
2022-12-31T01:27:53.344Z,25.87
2022-12-31T01:28:53.354Z,25.80
2022-12-31T01:29:53.349Z,25.79
2022-12-31T01:30:53.425Z,25.76
2022-12-31T01:31:53.336Z,25.79
2022-12-31T01:32:53.342Z,25.79
2022-12-31T01:33:53.335Z,25.75
2022-12-31T01:34:53.340Z,25.80
2022-12-31T01:35:53.333Z,25.79
2022-12-31T01:36:53.337Z,25.77
2022-12-31T01:37:53.344Z,25.79
2022-12-31T01:38:53.341Z,25.79
2022-12-31T01:39:53.336Z,25.76
2022-12-31T01:40:53.336Z,25.82
2022-12-31T01:41:53.354Z,25.82
2022-12-31T01:42:53.331Z,25.75
2022-12-31T01:43:53.325Z,25.77
2022-12-31T01:44:53.482Z,25.80
2022-12-31T01:45:53.371Z,25.76
2022-12-31T01:46:53.340Z,25.79
2022-12-31T01:47:53.327Z,25.77
2022-12-31T01:48:53.330Z,25.79
2022-12-31T01:49:53.319Z,25.76
2022-12-31T01:50:53.332Z,25.80
2022-12-31T01:51:53.321Z,25.76
2022-12-31T01:52:53.325Z,25.77
2022-12-31T01:53:53.335Z,25.79
2022-12-31T01:54:53.328Z,25.77
2022-12-31T01:55:53.313Z,25.73
2022-12-31T01:56:53.324Z,25.77
2022-12-31T01:57:53.337Z,25.79
2022-12-31T01:58:53.320Z,25.83
2022-12-31T01:59:53.313Z,25.80
2022-12-31T02:00:53.316Z,25.80
2022-12-31T02:01:53.479Z,25.77
2022-12-31T02:02:53.487Z,25.80
2022-12-31T02:03:53.339Z,25.76
2022-12-31T02:04:53.338Z,25.73
2022-12-31T02:05:53.304Z,25.76
2022-12-31T02:06:53.327Z,25.80
2022-12-31T02:07:53.307Z,25.79
2022-12-31T02:08:53.309Z,25.79
2022-12-31T02:09:53.303Z,25.75
2022-12-31T02:10:53.307Z,25.79
2022-12-31T02:11:53.300Z,25.79
2022-12-31T02:12:53.302Z,25.75
2022-12-31T02:13:58.153Z,25.79
2022-12-31T02:14:53.331Z,25.73
2022-12-31T02:15:53.343Z,25.73
2022-12-31T02:16:53.301Z,25.80
2022-12-31T02:17:53.292Z,25.80
2022-12-31T02:18:53.301Z,25.73
2022-12-31T02:19:53.289Z,25.79
2022-12-31T02:20:53.295Z,25.75
2022-12-31T02:21:53.288Z,25.76
2022-12-31T02:22:53.292Z,25.75
2022-12-31T02:23:53.285Z,25.76
2022-12-31T02:24:53.291Z,25.79
2022-12-31T02:25:53.286Z,25.75
2022-12-31T02:26:53.294Z,25.76
2022-12-31T02:27:53.282Z,25.75
2022-12-31T02:28:53.296Z,25.77
2022-12-31T02:29:53.303Z,25.76
2022-12-31T02:30:53.340Z,25.73
2022-12-31T02:31:53.286Z,25.70
2022-12-31T02:32:53.283Z,25.77
2022-12-31T02:33:53.285Z,25.80
2022-12-31T02:34:53.287Z,25.73
2022-12-31T02:35:53.273Z,25.75
2022-12-31T02:36:53.286Z,25.79
2022-12-31T02:37:53.278Z,25.76
2022-12-31T02:38:53.278Z,25.76
2022-12-31T02:39:53.274Z,25.76
2022-12-31T02:40:53.276Z,25.73
2022-12-31T02:41:53.271Z,25.79
2022-12-31T02:42:55.499Z,25.79
2022-12-31T02:43:53.269Z,25.76
2022-12-31T02:44:53.280Z,25.73
2022-12-31T02:45:53.295Z,25.79
2022-12-31T02:46:53.309Z,25.83
2022-12-31T02:47:53.266Z,25.75
2022-12-31T02:48:53.272Z,25.82
2022-12-31T02:49:53.264Z,25.80
2022-12-31T02:50:53.269Z,25.79
2022-12-31T02:51:53.261Z,25.79
2022-12-31T02:52:53.267Z,25.76
2022-12-31T02:53:53.263Z,25.80
2022-12-31T02:54:53.271Z,25.80
2022-12-31T02:55:53.265Z,25.82
2022-12-31T02:56:53.264Z,25.82
2022-12-31T02:57:53.259Z,25.77
2022-12-31T02:58:53.262Z,25.79
2022-12-31T02:59:53.254Z,25.76
2022-12-31T03:00:53.360Z,25.79
2022-12-31T03:01:53.357Z,25.80
2022-12-31T03:02:53.326Z,25.69
2022-12-31T03:03:53.249Z,25.76
2022-12-31T03:04:53.259Z,25.76
2022-12-31T03:05:53.250Z,25.77
2022-12-31T03:06:53.254Z,25.75
2022-12-31T03:07:53.252Z,25.77
2022-12-31T03:08:53.254Z,25.76
2022-12-31T03:09:53.247Z,25.79
2022-12-31T03:10:53.250Z,25.80
2022-12-31T03:11:53.243Z,25.69
2022-12-31T03:12:53.248Z,25.76
2022-12-31T03:13:53.241Z,25.70
2022-12-31T03:14:53.269Z,25.75
2022-12-31T03:15:53.296Z,25.76
2022-12-31T03:16:53.245Z,25.73
2022-12-31T03:17:53.295Z,25.80
2022-12-31T03:18:53.242Z,25.75
2022-12-31T03:19:53.235Z,25.75
2022-12-31T03:20:53.245Z,25.79
2022-12-31T03:21:53.233Z,25.77
2022-12-31T03:22:53.241Z,25.79
2022-12-31T03:23:53.230Z,25.76
2022-12-31T03:24:53.242Z,25.73
2022-12-31T03:25:53.259Z,25.79
2022-12-31T03:26:53.235Z,25.79
2022-12-31T03:27:53.226Z,25.77
2022-12-31T03:28:53.232Z,25.75
2022-12-31T03:29:53.223Z,25.83
2022-12-31T03:30:53.229Z,25.76
2022-12-31T03:31:53.265Z,25.77
2022-12-31T03:32:53.227Z,25.70
2022-12-31T03:33:53.248Z,25.76
2022-12-31T03:34:53.227Z,25.82
2022-12-31T03:35:53.232Z,25.73
2022-12-31T03:36:53.226Z,25.79
2022-12-31T03:37:53.219Z,25.76
2022-12-31T03:38:53.224Z,25.73
2022-12-31T03:39:53.217Z,25.76
2022-12-31T03:40:53.246Z,25.79
2022-12-31T03:41:53.215Z,25.76
2022-12-31T03:42:53.225Z,25.82
2022-12-31T03:43:53.224Z,25.76
2022-12-31T03:44:53.322Z,25.75
2022-12-31T03:45:53.278Z,25.80
2022-12-31T03:46:53.225Z,25.76
2022-12-31T03:47:53.212Z,25.76
2022-12-31T03:48:53.221Z,25.79
2022-12-31T03:49:53.235Z,25.75
2022-12-31T03:50:53.233Z,25.77
2022-12-31T03:51:53.205Z,25.79
2022-12-31T03:52:53.218Z,25.70
2022-12-31T03:53:53.202Z,25.75
2022-12-31T03:54:53.211Z,25.75
2022-12-31T03:55:53.295Z,25.77
2022-12-31T03:56:58.314Z,25.79
2022-12-31T03:57:53.199Z,25.75
2022-12-31T03:58:53.203Z,25.75
2022-12-31T03:59:53.195Z,25.79
2022-12-31T04:00:53.261Z,25.73
2022-12-31T04:01:53.326Z,25.76
2022-12-31T04:02:53.249Z,25.76
2022-12-31T04:03:53.216Z,25.82
2022-12-31T04:04:53.194Z,25.80
2022-12-31T04:05:53.225Z,25.73
2022-12-31T04:06:53.188Z,25.75
2022-12-31T04:07:53.196Z,25.75
2022-12-31T04:08:53.189Z,25.76
2022-12-31T04:09:53.202Z,25.72
2022-12-31T04:10:53.192Z,25.75
2022-12-31T04:11:53.193Z,25.76
2022-12-31T04:12:53.186Z,25.72
2022-12-31T04:13:53.193Z,25.77
2022-12-31T04:14:53.183Z,25.75
2022-12-31T04:15:53.194Z,25.79
2022-12-31T04:16:53.183Z,25.77
2022-12-31T04:17:53.192Z,25.72
2022-12-31T04:18:53.180Z,25.76
2022-12-31T04:19:53.187Z,25.79
2022-12-31T04:20:53.178Z,25.75
2022-12-31T04:21:53.212Z,25.79
2022-12-31T04:22:53.176Z,25.75
2022-12-31T04:23:53.184Z,25.76
2022-12-31T04:24:53.174Z,25.76
2022-12-31T04:25:53.181Z,25.75
2022-12-31T04:26:53.180Z,25.80
2022-12-31T04:27:53.180Z,25.77
2022-12-31T04:28:53.171Z,25.76
2022-12-31T04:29:53.177Z,25.76
2022-12-31T04:30:53.178Z,25.79
2022-12-31T04:31:53.208Z,25.77
2022-12-31T04:32:53.172Z,25.79
2022-12-31T04:33:53.174Z,25.76
2022-12-31T04:34:53.164Z,25.76
2022-12-31T04:35:53.172Z,25.79
2022-12-31T04:36:53.163Z,25.75
2022-12-31T04:37:53.189Z,25.75
2022-12-31T04:38:53.158Z,25.76
2022-12-31T04:39:53.167Z,25.75
2022-12-31T04:40:53.158Z,25.80
2022-12-31T04:41:53.165Z,25.80
2022-12-31T04:42:53.161Z,25.79
2022-12-31T04:43:53.181Z,25.75
2022-12-31T04:44:53.154Z,25.75
2022-12-31T04:45:53.188Z,25.76
2022-12-31T04:46:53.151Z,25.75
2022-12-31T04:47:53.158Z,25.79
2022-12-31T04:48:53.151Z,25.76
2022-12-31T04:49:53.156Z,25.75
2022-12-31T04:50:53.150Z,25.79
2022-12-31T04:51:53.161Z,25.76
2022-12-31T04:52:53.151Z,25.79
2022-12-31T04:53:53.181Z,25.77
2022-12-31T04:54:53.146Z,25.76
2022-12-31T04:55:53.157Z,25.75
2022-12-31T04:56:53.144Z,25.75
2022-12-31T04:57:53.155Z,25.76
2022-12-31T04:58:53.143Z,25.76
2022-12-31T04:59:53.152Z,25.77
2022-12-31T05:00:53.181Z,25.75
2022-12-31T05:01:53.286Z,25.73
2022-12-31T05:02:53.218Z,25.77
2022-12-31T05:03:53.151Z,25.77
2022-12-31T05:04:53.140Z,25.75
2022-12-31T05:05:53.157Z,25.77
2022-12-31T05:06:53.135Z,25.79
2022-12-31T05:07:53.140Z,25.76
2022-12-31T05:08:53.135Z,25.75
2022-12-31T05:09:53.162Z,25.77
2022-12-31T05:10:53.131Z,25.79
2022-12-31T05:11:53.137Z,25.83
2022-12-31T05:12:53.135Z,25.76
2022-12-31T05:13:53.141Z,25.75
2022-12-31T05:14:53.135Z,25.76
2022-12-31T05:15:53.133Z,25.79
2022-12-31T05:16:53.206Z,25.79
2022-12-31T05:17:53.134Z,25.79
2022-12-31T05:18:53.122Z,25.79
2022-12-31T05:19:53.135Z,25.80
2022-12-31T05:20:53.125Z,25.79
2022-12-31T05:21:53.127Z,25.73
2022-12-31T05:22:53.119Z,25.80
2022-12-31T05:23:53.125Z,25.87
2022-12-31T05:24:53.117Z,25.75
2022-12-31T05:25:53.149Z,25.79
2022-12-31T05:26:53.113Z,25.79
2022-12-31T05:27:53.120Z,25.77
2022-12-31T05:28:53.113Z,25.75
2022-12-31T05:29:53.120Z,25.73
2022-12-31T05:30:53.263Z,25.80
2022-12-31T05:31:53.130Z,25.77
2022-12-31T05:32:53.110Z,25.76
2022-12-31T05:33:53.116Z,25.80
2022-12-31T05:34:53.109Z,25.76
2022-12-31T05:35:53.114Z,25.76
2022-12-31T05:36:53.104Z,25.76
2022-12-31T05:37:53.117Z,25.76
2022-12-31T05:38:53.128Z,25.76
2022-12-31T05:39:53.111Z,25.76
2022-12-31T05:40:53.102Z,25.76
2022-12-31T05:41:53.134Z,25.77
2022-12-31T05:42:53.104Z,25.75
2022-12-31T05:43:53.107Z,25.76
2022-12-31T05:44:53.102Z,25.77
2022-12-31T05:45:53.128Z,25.79
2022-12-31T05:46:53.098Z,25.79
2022-12-31T05:47:53.104Z,25.79
2022-12-31T05:48:53.096Z,25.80
2022-12-31T05:49:53.100Z,25.76
2022-12-31T05:50:53.096Z,25.75
2022-12-31T05:51:53.097Z,25.72
2022-12-31T05:52:53.091Z,25.75
2022-12-31T05:53:53.095Z,25.76
2022-12-31T05:54:53.095Z,25.73
2022-12-31T05:55:53.110Z,25.75
2022-12-31T05:56:53.086Z,25.79
2022-12-31T05:57:53.113Z,25.79
2022-12-31T05:58:53.095Z,25.73
2022-12-31T05:59:53.091Z,25.76
2022-12-31T06:00:53.081Z,25.75
2022-12-31T06:01:53.091Z,25.70
2022-12-31T06:02:53.181Z,25.75
2022-12-31T06:03:53.133Z,25.70
2022-12-31T06:04:53.084Z,25.76
2022-12-31T06:05:53.088Z,25.79
2022-12-31T06:06:53.079Z,25.72
2022-12-31T06:07:53.110Z,25.64
2022-12-31T06:08:53.076Z,25.70
2022-12-31T06:09:53.089Z,25.73
2022-12-31T06:10:53.074Z,25.67
2022-12-31T06:11:53.078Z,25.67
2022-12-31T06:12:53.073Z,25.69
2022-12-31T06:13:53.098Z,25.70
2022-12-31T06:14:53.087Z,25.73
2022-12-31T06:15:53.105Z,25.69
2022-12-31T06:16:53.068Z,25.73
2022-12-31T06:17:53.072Z,25.72
2022-12-31T06:18:53.071Z,25.73
2022-12-31T06:19:53.077Z,25.69
2022-12-31T06:20:53.065Z,25.61
2022-12-31T06:21:53.072Z,25.57
2022-12-31T06:22:53.067Z,25.61
2022-12-31T06:23:53.072Z,25.61
2022-12-31T06:24:53.062Z,25.62
2022-12-31T06:25:53.070Z,25.58
2022-12-31T06:26:53.057Z,25.62
2022-12-31T06:27:53.074Z,25.61
2022-12-31T06:28:53.056Z,25.62
2022-12-31T06:29:53.088Z,25.62
2022-12-31T06:30:53.132Z,25.64
2022-12-31T06:31:53.059Z,25.60
2022-12-31T06:32:53.056Z,25.60
2022-12-31T06:33:53.063Z,25.62
2022-12-31T06:34:53.049Z,25.72
2022-12-31T06:35:53.058Z,25.65
2022-12-31T06:36:53.054Z,25.58
2022-12-31T06:37:53.062Z,25.64
2022-12-31T06:38:53.048Z,25.61
2022-12-31T06:39:53.055Z,25.69
2022-12-31T06:40:53.052Z,25.72
2022-12-31T06:41:53.050Z,25.61
2022-12-31T06:42:59.552Z,25.64
2022-12-31T06:43:53.045Z,25.75
2022-12-31T06:44:53.039Z,25.69
2022-12-31T06:45:53.094Z,25.65
2022-12-31T06:46:53.170Z,25.73
2022-12-31T06:47:53.060Z,25.67
2022-12-31T06:48:53.033Z,25.70
2022-12-31T06:49:53.043Z,25.76
2022-12-31T06:50:53.030Z,25.73
2022-12-31T06:51:53.042Z,25.62
2022-12-31T06:52:53.040Z,25.72
2022-12-31T06:53:53.044Z,25.73
2022-12-31T06:54:53.026Z,25.70
2022-12-31T06:55:53.033Z,25.70
2022-12-31T06:56:53.030Z,25.73
2022-12-31T06:57:53.034Z,25.73
2022-12-31T06:58:53.025Z,25.67
2022-12-31T06:59:53.032Z,25.64
2022-12-31T07:00:53.024Z,25.70
2022-12-31T07:01:53.282Z,25.69
2022-12-31T07:02:53.044Z,25.69
2022-12-31T07:03:53.028Z,25.67
2022-12-31T07:04:53.017Z,25.65
2022-12-31T07:05:53.023Z,25.72
2022-12-31T07:06:53.014Z,25.67
2022-12-31T07:07:53.027Z,25.76
2022-12-31T07:08:53.013Z,25.67
2022-12-31T07:09:53.045Z,25.69
2022-12-31T07:10:53.011Z,25.65
2022-12-31T07:11:53.017Z,25.73
2022-12-31T07:12:53.011Z,25.70
2022-12-31T07:13:53.017Z,25.76
2022-12-31T07:14:53.008Z,25.67
2022-12-31T07:15:53.067Z,25.70
2022-12-31T07:16:53.009Z,25.69
2022-12-31T07:17:53.035Z,25.76
2022-12-31T07:18:53.006Z,25.69
2022-12-31T07:19:57.534Z,25.69
2022-12-31T07:20:53.004Z,25.73
2022-12-31T07:21:53.010Z,25.70
2022-12-31T07:22:53.000Z,25.70
2022-12-31T07:23:53.009Z,25.72
2022-12-31T07:24:53.000Z,25.70
2022-12-31T07:25:53.007Z,25.79
2022-12-31T07:26:56.762Z,25.67
2022-12-31T07:27:53.006Z,25.69
2022-12-31T07:28:52.996Z,25.72
2022-12-31T07:29:53.000Z,25.73
2022-12-31T07:30:53.029Z,25.73
2022-12-31T07:31:53.001Z,25.72
2022-12-31T07:32:52.999Z,25.72
2022-12-31T07:33:53.029Z,25.72
2022-12-31T07:34:53.003Z,25.72
2022-12-31T07:35:52.998Z,25.70
2022-12-31T07:36:52.986Z,25.73
2022-12-31T07:37:52.996Z,25.79
2022-12-31T07:38:52.987Z,25.72
2022-12-31T07:39:52.991Z,25.70
2022-12-31T07:40:52.993Z,25.72
2022-12-31T07:41:52.989Z,25.77
2022-12-31T07:42:52.986Z,25.75
2022-12-31T07:43:52.989Z,25.65
2022-12-31T07:44:52.992Z,25.70
2022-12-31T07:45:52.988Z,25.75
2022-12-31T07:46:53.036Z,25.75
2022-12-31T07:47:56.345Z,25.73
2022-12-31T07:48:52.982Z,25.79
2022-12-31T07:49:53.008Z,25.69
2022-12-31T07:50:52.975Z,25.72
2022-12-31T07:51:52.984Z,25.75
2022-12-31T07:52:52.974Z,25.73
2022-12-31T07:53:52.982Z,25.76
2022-12-31T07:54:52.972Z,25.75
2022-12-31T07:55:52.977Z,25.76
2022-12-31T07:56:52.970Z,25.70
2022-12-31T07:57:52.975Z,25.73
2022-12-31T07:58:52.966Z,25.72
2022-12-31T07:59:52.973Z,25.72
2022-12-31T08:00:52.999Z,25.72
2022-12-31T08:01:53.121Z,25.72
2022-12-31T08:02:53.014Z,25.72
2022-12-31T08:03:52.969Z,25.70
2022-12-31T08:04:52.961Z,25.75
2022-12-31T08:05:53.008Z,25.73
2022-12-31T08:06:52.960Z,25.70
2022-12-31T08:07:52.965Z,25.77
2022-12-31T08:08:52.958Z,25.76
2022-12-31T08:09:52.960Z,25.77
2022-12-31T08:10:52.954Z,25.69
2022-12-31T08:11:52.959Z,25.72
2022-12-31T08:12:52.951Z,25.77
2022-12-31T08:13:52.962Z,25.67
2022-12-31T08:14:52.948Z,25.72
2022-12-31T08:15:52.986Z,25.76
2022-12-31T08:16:52.973Z,25.75
2022-12-31T08:17:52.955Z,25.76
2022-12-31T08:18:52.952Z,25.75
2022-12-31T08:19:52.944Z,25.70
2022-12-31T08:20:52.952Z,25.72
2022-12-31T08:21:52.964Z,25.75
2022-12-31T08:22:52.947Z,25.72
2022-12-31T08:23:52.940Z,25.70
2022-12-31T08:24:52.949Z,25.75
2022-12-31T08:25:52.948Z,25.76
2022-12-31T08:26:53.448Z,25.75
2022-12-31T08:27:52.937Z,25.72
2022-12-31T08:28:52.951Z,25.76
2022-12-31T08:29:52.947Z,25.69
2022-12-31T08:30:52.943Z,25.77
2022-12-31T08:31:52.962Z,25.72
2022-12-31T08:32:52.942Z,25.73
2022-12-31T08:33:52.932Z,25.77
2022-12-31T08:34:52.941Z,25.76
2022-12-31T08:35:52.930Z,25.79
2022-12-31T08:36:52.937Z,25.76
2022-12-31T08:37:52.956Z,25.73
2022-12-31T08:38:52.934Z,25.72
2022-12-31T08:39:52.926Z,25.73
2022-12-31T08:40:52.935Z,25.80
2022-12-31T08:41:52.925Z,25.79
2022-12-31T08:42:52.931Z,25.73
2022-12-31T08:43:53.077Z,25.70
2022-12-31T08:44:52.929Z,25.70
2022-12-31T08:45:52.993Z,25.79
2022-12-31T08:46:52.927Z,25.77
2022-12-31T08:47:59.547Z,25.72
2022-12-31T08:48:52.926Z,25.75
2022-12-31T08:49:52.919Z,25.73
2022-12-31T08:50:52.922Z,25.75
2022-12-31T08:51:52.917Z,25.77
2022-12-31T08:52:52.920Z,25.72
2022-12-31T08:53:52.937Z,25.73
2022-12-31T08:54:52.921Z,25.75
2022-12-31T08:55:52.932Z,25.75
2022-12-31T08:56:52.919Z,25.72
2022-12-31T08:57:52.909Z,25.75
2022-12-31T08:58:52.920Z,25.75
2022-12-31T08:59:52.909Z,25.73
2022-12-31T09:00:53.000Z,25.75
2022-12-31T09:01:53.006Z,25.77
2022-12-31T09:02:52.915Z,25.72
2022-12-31T09:03:52.947Z,25.73
2022-12-31T09:04:52.916Z,25.72
2022-12-31T09:05:52.904Z,25.73
2022-12-31T09:06:52.916Z,25.73
2022-12-31T09:07:52.901Z,25.73
2022-12-31T09:08:52.907Z,25.75
2022-12-31T09:09:52.931Z,25.76
2022-12-31T09:10:52.908Z,25.75
2022-12-31T09:11:52.907Z,25.76
2022-12-31T09:12:52.902Z,25.76
2022-12-31T09:13:52.909Z,25.80
2022-12-31T09:14:52.900Z,25.80
2022-12-31T09:15:52.893Z,25.76
2022-12-31T09:16:52.947Z,25.80
2022-12-31T09:17:52.891Z,25.76
2022-12-31T09:18:52.897Z,25.77
2022-12-31T09:19:52.888Z,25.75
2022-12-31T09:20:52.907Z,25.75
2022-12-31T09:21:52.891Z,25.75
2022-12-31T09:22:52.899Z,25.75
2022-12-31T09:23:52.885Z,25.73
2022-12-31T09:24:52.893Z,25.75
2022-12-31T09:25:52.904Z,25.75
2022-12-31T09:26:52.888Z,25.75
2022-12-31T09:27:52.879Z,25.79
2022-12-31T09:28:52.887Z,25.79
2022-12-31T09:29:52.878Z,25.76
2022-12-31T09:30:52.883Z,25.75
2022-12-31T09:31:52.937Z,25.79
2022-12-31T09:32:58.601Z,25.72
2022-12-31T09:33:52.926Z,25.75
2022-12-31T09:34:52.879Z,25.75
2022-12-31T09:35:52.876Z,25.75
2022-12-31T09:36:52.888Z,25.75
2022-12-31T09:37:52.871Z,25.82
2022-12-31T09:38:52.877Z,25.73
2022-12-31T09:39:52.868Z,25.76
2022-12-31T09:40:52.874Z,25.75
2022-12-31T09:41:52.892Z,25.79
2022-12-31T09:42:52.890Z,25.77
2022-12-31T09:43:59.060Z,25.79
2022-12-31T09:44:52.874Z,25.69
2022-12-31T09:45:52.912Z,25.76
2022-12-31T09:46:52.872Z,25.79
2022-12-31T09:47:52.872Z,25.75
2022-12-31T09:48:52.869Z,25.70
2022-12-31T09:49:52.868Z,25.73
2022-12-31T09:50:52.866Z,25.75
2022-12-31T09:51:52.858Z,25.75
2022-12-31T09:52:52.865Z,25.77
2022-12-31T09:53:52.857Z,25.79
2022-12-31T09:54:52.865Z,25.79
2022-12-31T09:55:52.854Z,25.75
2022-12-31T09:56:58.753Z,25.77
2022-12-31T09:57:52.880Z,25.79
2022-12-31T09:58:52.870Z,25.79
2022-12-31T09:59:52.856Z,25.76
2022-12-31T10:00:52.915Z,25.76
2022-12-31T10:01:52.964Z,25.77
2022-12-31T10:02:52.949Z,25.79
2022-12-31T10:03:52.855Z,25.75
2022-12-31T10:04:52.854Z,25.80
2022-12-31T10:05:52.849Z,25.79
2022-12-31T10:06:52.852Z,25.76
2022-12-31T10:07:53.817Z,25.76
2022-12-31T10:08:52.854Z,25.79
2022-12-31T10:09:52.844Z,25.73
2022-12-31T10:10:52.849Z,25.79
2022-12-31T10:11:52.840Z,25.77
2022-12-31T10:12:52.851Z,25.77
2022-12-31T10:13:52.859Z,25.75
2022-12-31T10:14:52.844Z,25.75
2022-12-31T10:15:52.834Z,25.75
2022-12-31T10:16:52.888Z,25.83
2022-12-31T10:17:52.835Z,25.79
2022-12-31T10:18:52.843Z,25.79
2022-12-31T10:19:52.836Z,25.76
2022-12-31T10:20:52.839Z,25.77
2022-12-31T10:21:52.830Z,25.80
2022-12-31T10:22:52.837Z,25.82
2022-12-31T10:23:52.860Z,25.75
2022-12-31T10:24:52.836Z,25.77
2022-12-31T10:25:52.828Z,25.79
2022-12-31T10:26:53.613Z,25.79
2022-12-31T10:27:52.825Z,25.82
2022-12-31T10:28:52.832Z,25.80
2022-12-31T10:29:52.846Z,25.73
2022-12-31T10:30:52.845Z,25.80
2022-12-31T10:31:52.822Z,25.82
2022-12-31T10:32:52.830Z,25.76
2022-12-31T10:33:52.825Z,25.76
2022-12-31T10:34:52.829Z,25.80
2022-12-31T10:35:52.824Z,25.79
2022-12-31T10:36:52.832Z,25.70
2022-12-31T10:37:52.827Z,25.79
2022-12-31T10:38:52.822Z,25.75
2022-12-31T10:39:52.811Z,25.76
2022-12-31T10:40:52.819Z,25.80
2022-12-31T10:41:52.810Z,25.76
2022-12-31T10:42:52.816Z,25.79
2022-12-31T10:43:52.808Z,25.79
2022-12-31T10:44:52.822Z,25.75
2022-12-31T10:45:52.879Z,25.76
2022-12-31T10:46:52.828Z,25.73
2022-12-31T10:47:52.813Z,25.76
2022-12-31T10:48:52.817Z,25.79
2022-12-31T10:49:52.810Z,25.75
2022-12-31T10:50:52.810Z,25.80
2022-12-31T10:51:52.805Z,25.79
2022-12-31T10:52:52.809Z,25.77
2022-12-31T10:53:52.799Z,25.79
2022-12-31T10:54:52.812Z,25.77
2022-12-31T10:55:52.796Z,25.79
2022-12-31T10:56:52.805Z,25.79
2022-12-31T10:57:52.805Z,25.79
2022-12-31T10:58:52.805Z,25.77
2022-12-31T10:59:52.793Z,25.79
2022-12-31T11:00:52.812Z,25.77
2022-12-31T11:01:52.991Z,25.79
2022-12-31T11:02:52.943Z,25.79
2022-12-31T11:03:52.789Z,25.80
2022-12-31T11:04:52.796Z,25.77
2022-12-31T11:05:52.789Z,25.82
2022-12-31T11:06:52.794Z,25.73
2022-12-31T11:07:52.785Z,25.76
2022-12-31T11:08:52.800Z,25.80
2022-12-31T11:09:52.788Z,25.77
2022-12-31T11:10:52.790Z,25.76
2022-12-31T11:11:52.782Z,25.79
2022-12-31T11:12:52.793Z,25.80
2022-12-31T11:13:52.787Z,25.77
2022-12-31T11:14:52.788Z,25.82
2022-12-31T11:15:52.817Z,25.79
2022-12-31T11:16:52.787Z,25.77
2022-12-31T11:17:52.806Z,25.80
2022-12-31T11:18:52.783Z,25.77
2022-12-31T11:19:52.775Z,25.79
2022-12-31T11:20:52.787Z,25.80
2022-12-31T11:21:52.776Z,25.80
2022-12-31T11:22:52.782Z,25.76
2022-12-31T11:23:52.773Z,25.75
2022-12-31T11:24:52.782Z,25.79
2022-12-31T11:25:52.771Z,25.85
2022-12-31T11:26:52.777Z,25.76
2022-12-31T11:27:52.772Z,25.80
2022-12-31T11:28:52.777Z,25.79
2022-12-31T11:29:52.771Z,25.76
2022-12-31T11:30:52.926Z,25.79
2022-12-31T11:31:52.776Z,25.79
2022-12-31T11:32:52.796Z,25.82
2022-12-31T11:33:52.799Z,25.79
2022-12-31T11:34:52.791Z,25.82
2022-12-31T11:35:52.761Z,25.82
2022-12-31T11:36:52.766Z,25.80
2022-12-31T11:37:52.783Z,25.72
2022-12-31T11:38:52.766Z,25.77
2022-12-31T11:39:52.760Z,25.83
2022-12-31T11:40:52.772Z,25.80
2022-12-31T11:41:52.768Z,25.82
2022-12-31T11:42:52.788Z,25.82
2022-12-31T11:43:52.755Z,25.75
2022-12-31T11:44:52.763Z,25.80
2022-12-31T11:45:52.754Z,25.83
2022-12-31T11:46:52.757Z,25.80
2022-12-31T11:48:28.493Z,25.80
2022-12-31T11:48:52.759Z,25.72
2022-12-31T11:49:52.776Z,25.79
2022-12-31T11:50:52.757Z,25.83
2022-12-31T11:51:52.752Z,25.80
2022-12-31T11:52:52.756Z,25.80
2022-12-31T11:53:52.744Z,25.79
2022-12-31T11:54:52.750Z,25.83
2022-12-31T11:55:52.743Z,25.77
2022-12-31T11:56:52.749Z,25.73
2022-12-31T11:57:52.747Z,25.79
2022-12-31T11:58:52.745Z,25.80
2022-12-31T11:59:52.737Z,25.79
2022-12-31T12:00:52.744Z,25.79
2022-12-31T12:01:52.747Z,25.79
2022-12-31T12:02:52.804Z,25.76
2022-12-31T12:03:52.810Z,25.77
2022-12-31T12:04:52.742Z,25.79
2022-12-31T12:05:52.776Z,25.79
2022-12-31T12:06:52.739Z,25.79
2022-12-31T12:07:52.739Z,25.80
2022-12-31T12:08:52.741Z,25.77
2022-12-31T12:09:52.733Z,25.83
2022-12-31T12:10:52.748Z,25.79
2022-12-31T12:11:52.727Z,25.79
2022-12-31T12:12:52.734Z,25.79
2022-12-31T12:13:52.729Z,25.73
2022-12-31T12:14:52.737Z,25.82
2022-12-31T12:15:52.757Z,25.80
2022-12-31T12:16:52.737Z,25.83
2022-12-31T12:17:52.724Z,25.76
2022-12-31T12:18:52.728Z,25.82
2022-12-31T12:19:52.721Z,25.83
2022-12-31T12:20:52.729Z,25.77
2022-12-31T12:21:52.744Z,25.79
2022-12-31T12:22:52.726Z,25.79
2022-12-31T12:23:52.714Z,25.80
2022-12-31T12:24:52.721Z,25.83
2022-12-31T12:25:52.722Z,25.82
2022-12-31T12:26:52.718Z,25.76
2022-12-31T12:27:52.732Z,25.80
2022-12-31T12:28:52.718Z,25.82
2022-12-31T12:29:52.709Z,25.82
2022-12-31T12:30:52.717Z,25.77
2022-12-31T12:31:52.784Z,25.83
2022-12-31T12:32:52.717Z,25.79
2022-12-31T12:33:52.708Z,25.82
2022-12-31T12:34:52.704Z,25.79
2022-12-31T12:35:52.711Z,25.83
2022-12-31T12:36:52.703Z,25.87
2022-12-31T12:37:52.733Z,25.77
2022-12-31T12:38:52.706Z,25.83
2022-12-31T12:39:52.711Z,25.83
2022-12-31T12:40:52.701Z,25.77
2022-12-31T12:41:52.709Z,25.85
2022-12-31T12:42:52.699Z,25.87
2022-12-31T12:43:52.854Z,25.82
2022-12-31T12:44:52.698Z,25.83
2022-12-31T12:45:52.720Z,25.83
2022-12-31T12:46:52.808Z,25.87
2022-12-31T12:47:52.703Z,25.77
2022-12-31T12:48:52.700Z,25.80
2022-12-31T12:49:52.701Z,25.82
2022-12-31T12:50:52.692Z,25.82
2022-12-31T12:51:52.702Z,25.83
2022-12-31T12:52:56.386Z,25.77